createdAt,value
2023-05-01T00:00:49.468Z,80.13
2023-05-01T00:01:49.453Z,79.93
2023-05-01T00:02:49.399Z,80.03
2023-05-01T00:03:49.575Z,80.03
2023-05-01T00:04:49.444Z,79.93
2023-05-01T00:05:49.491Z,79.83
2023-05-01T00:06:49.484Z,79.63
2023-05-01T00:07:49.472Z,79.43
2023-05-01T00:08:49.297Z,79.53
2023-05-01T00:09:49.300Z,79.59
2023-05-01T00:10:49.305Z,79.39
2023-05-01T00:11:49.510Z,79.29
2023-05-01T00:12:49.326Z,79.39
2023-05-01T00:13:49.634Z,79.49
2023-05-01T00:14:49.326Z,79.49
2023-05-01T00:15:49.339Z,79.49
2023-05-01T00:16:49.414Z,79.39
2023-05-01T00:17:49.413Z,79.39
2023-05-01T00:18:49.352Z,79.69
2023-05-01T00:19:49.380Z,79.69
2023-05-01T00:20:49.164Z,79.09
2023-05-01T00:21:49.193Z,79.09
2023-05-01T00:22:49.190Z,79.19
2023-05-01T00:23:49.210Z,79.19
2023-05-01T00:24:49.195Z,78.99
2023-05-01T00:25:50.008Z,79.09
2023-05-01T00:26:49.114Z,79.49
2023-05-01T00:27:49.126Z,79.49
2023-05-01T00:28:49.127Z,79.79
2023-05-01T00:29:49.124Z,79.49
2023-05-01T00:30:49.149Z,79.69
2023-05-01T00:31:49.094Z,79.19
2023-05-01T00:32:49.112Z,79.39
2023-05-01T00:33:49.139Z,79.49
2023-05-01T00:34:48.984Z,79.63
2023-05-01T00:35:48.985Z,79.93
2023-05-01T00:36:50.001Z,80.03
2023-05-01T00:37:49.000Z,80.23
2023-05-01T00:38:48.991Z,80.23
2023-05-01T00:39:49.924Z,79.93
2023-05-01T00:40:48.910Z,80.23
2023-05-01T00:41:48.917Z,80.43
2023-05-01T00:42:49.011Z,80.53
2023-05-01T00:43:48.994Z,80.63
2023-05-01T00:44:49.038Z,80.73
2023-05-01T00:45:48.996Z,80.77
2023-05-01T00:46:48.926Z,80.77
2023-05-01T00:47:48.905Z,80.97
2023-05-01T00:48:48.957Z,81.07
2023-05-01T00:49:48.887Z,81.07
2023-05-01T00:50:48.955Z,81.17
2023-05-01T00:51:48.886Z,81.27
2023-05-01T00:52:48.783Z,81.37
2023-05-01T00:53:48.790Z,81.47
2023-05-01T00:54:48.808Z,81.37
2023-05-01T00:55:48.808Z,81.27
2023-05-01T00:56:48.902Z,81.27
2023-05-01T00:57:48.705Z,81.37
2023-05-01T00:58:48.717Z,81.57
2023-05-01T00:59:48.695Z,81.37
2023-05-01T01:00:48.959Z,81.51
2023-05-01T01:01:48.786Z,81.41
2023-05-01T01:02:48.769Z,81.51
2023-05-01T01:03:48.648Z,81.71
2023-05-01T01:04:48.877Z,81.81
2023-05-01T01:05:48.677Z,81.91
2023-05-01T01:06:48.898Z,82.11
2023-05-01T01:07:48.694Z,82.11
2023-05-01T01:08:48.685Z,82.15
2023-05-01T01:09:48.590Z,82.15
2023-05-01T01:10:48.592Z,82.24
2023-05-01T01:11:48.594Z,82.24
2023-05-01T01:12:48.599Z,82.45
2023-05-01T01:13:48.600Z,82.45
2023-05-01T01:14:48.590Z,82.45
2023-05-01T01:15:48.516Z,82.55
2023-05-01T01:16:48.558Z,82.55
2023-05-01T01:17:49.162Z,82.35
2023-05-01T01:18:48.940Z,82.31
2023-05-01T01:19:48.446Z,82.11
2023-05-01T01:20:48.454Z,82.01
2023-05-01T01:21:48.464Z,81.91
2023-05-01T01:22:48.464Z,81.71
2023-05-01T01:23:48.445Z,81.71
2023-05-01T01:24:50.469Z,81.71
2023-05-01T01:25:48.495Z,81.41
2023-05-01T01:26:49.118Z,81.41
2023-05-01T01:27:48.373Z,81.30
2023-05-01T01:28:48.408Z,81.41
2023-05-01T01:29:48.389Z,81.30
2023-05-01T01:30:48.456Z,81.30
2023-05-01T01:31:48.325Z,81.41
2023-05-01T01:32:48.413Z,81.30
2023-05-01T01:33:48.341Z,81.41
2023-05-01T01:34:48.344Z,81.11
2023-05-01T01:35:48.331Z,81.11
2023-05-01T01:36:48.471Z,81.21
2023-05-01T01:37:48.269Z,81.11
2023-05-01T01:38:48.348Z,81.01
2023-05-01T01:39:48.274Z,81.01
2023-05-01T01:40:48.278Z,80.91
2023-05-01T01:41:48.266Z,80.61
2023-05-01T01:42:48.333Z,80.61
2023-05-01T01:43:48.283Z,80.80
2023-05-01T01:44:48.285Z,80.80
2023-05-01T01:45:48.252Z,80.91
2023-05-01T01:46:48.233Z,80.80
2023-05-01T01:47:48.198Z,80.91
2023-05-01T01:48:48.219Z,80.91
2023-05-01T01:49:48.222Z,81.01
2023-05-01T01:50:48.336Z,81.11
2023-05-01T01:51:48.111Z,81.01
2023-05-01T01:52:48.221Z,80.80
2023-05-01T01:53:48.230Z,81.11
2023-05-01T01:54:48.142Z,81.01
2023-05-01T01:55:48.137Z,81.01
2023-05-01T01:56:48.070Z,81.01
2023-05-01T01:57:48.275Z,80.91
2023-05-01T01:58:48.058Z,80.91
2023-05-01T01:59:48.098Z,81.01
2023-05-01T02:00:48.473Z,81.01
2023-05-01T02:01:48.282Z,80.91
2023-05-01T02:02:48.109Z,80.91
2023-05-01T02:03:48.189Z,80.91
2023-05-01T02:04:48.013Z,80.91
2023-05-01T02:05:48.140Z,81.01
2023-05-01T02:06:48.171Z,80.80
2023-05-01T02:07:48.080Z,80.71
2023-05-01T02:08:48.010Z,80.61
2023-05-01T02:09:48.046Z,80.61
2023-05-01T02:10:47.962Z,80.71
2023-05-01T02:11:47.942Z,80.71
2023-05-01T02:12:48.572Z,80.71
2023-05-01T02:13:47.947Z,80.71
2023-05-01T02:14:48.068Z,80.61
2023-05-01T02:15:47.931Z,80.80
2023-05-01T02:16:47.871Z,80.80
2023-05-01T02:17:47.955Z,80.80
2023-05-01T02:18:47.881Z,80.61
2023-05-01T02:19:47.887Z,80.51
2023-05-01T02:20:47.824Z,80.61
2023-05-01T02:21:47.832Z,80.61
2023-05-01T02:22:47.813Z,80.61
2023-05-01T02:23:48.029Z,80.61
2023-05-01T02:24:47.826Z,80.61
2023-05-01T02:25:47.832Z,80.71
2023-05-01T02:26:47.765Z,80.80
2023-05-01T02:27:47.772Z,81.04
2023-05-01T02:28:47.753Z,80.94
2023-05-01T02:29:48.059Z,80.91
2023-05-01T02:30:47.783Z,80.80
2023-05-01T02:31:47.801Z,80.85
2023-05-01T02:32:47.814Z,80.91
2023-05-01T02:33:47.690Z,80.91
2023-05-01T02:34:47.786Z,80.80
2023-05-01T02:35:49.025Z,80.85
2023-05-01T02:36:48.205Z,80.94
2023-05-01T02:37:47.645Z,81.04
2023-05-01T02:38:47.630Z,80.94
2023-05-01T02:39:47.610Z,81.04
2023-05-01T02:40:47.666Z,81.04
2023-05-01T02:41:48.052Z,81.24
2023-05-01T02:42:47.650Z,81.04
2023-05-01T02:43:47.647Z,81.04
2023-05-01T02:44:47.560Z,81.15
2023-05-01T02:45:47.562Z,81.24
2023-05-01T02:46:47.610Z,81.24
2023-05-01T02:47:47.623Z,81.35
2023-05-01T02:48:47.571Z,81.35
2023-05-01T02:49:47.571Z,81.24
2023-05-01T02:50:47.501Z,81.21
2023-05-01T02:51:47.489Z,81.11
2023-05-01T02:52:47.504Z,81.01
2023-05-01T02:53:47.507Z,81.01
2023-05-01T02:54:47.528Z,81.01
2023-05-01T02:55:47.445Z,81.11
2023-05-01T02:56:47.419Z,81.15
2023-05-01T02:57:47.432Z,81.15
2023-05-01T02:58:47.702Z,81.24
2023-05-01T02:59:47.477Z,81.24
2023-05-01T03:00:47.555Z,81.24
2023-05-01T03:01:47.613Z,81.24
2023-05-01T03:02:47.397Z,81.35
2023-05-01T03:03:47.615Z,81.35
2023-05-01T03:04:47.476Z,81.24
2023-05-01T03:05:47.487Z,81.24
2023-05-01T03:06:47.450Z,81.24
2023-05-01T03:07:47.405Z,81.24
2023-05-01T03:08:47.298Z,81.35
2023-05-01T03:09:47.313Z,81.35
2023-05-01T03:10:47.371Z,81.35
2023-05-01T03:11:47.328Z,81.30
2023-05-01T03:12:47.273Z,81.21
2023-05-01T03:13:47.279Z,81.11
2023-05-01T03:14:47.250Z,81.11
2023-05-01T03:15:47.246Z,80.91
2023-05-01T03:16:47.312Z,80.91
2023-05-01T03:17:47.405Z,80.94
2023-05-01T03:18:47.274Z,81.15
2023-05-01T03:19:47.370Z,81.35
2023-05-01T03:20:47.174Z,81.55
2023-05-01T03:21:47.185Z,81.45
2023-05-01T03:22:47.250Z,81.45
2023-05-01T03:23:47.189Z,81.45
2023-05-01T03:24:47.151Z,81.45
2023-05-01T03:25:47.634Z,81.45
2023-05-01T03:26:48.191Z,81.55
2023-05-01T03:27:47.113Z,81.41
2023-05-01T03:28:47.180Z,81.30
2023-05-01T03:29:47.157Z,81.30
2023-05-01T03:30:47.150Z,81.30
2023-05-01T03:31:47.122Z,81.21
2023-05-01T03:32:47.203Z,81.11
2023-05-01T03:33:47.168Z,81.11
2023-05-01T03:34:47.059Z,81.11
2023-05-01T03:35:47.121Z,81.01
2023-05-01T03:36:47.077Z,80.80
2023-05-01T03:37:47.013Z,80.80
2023-05-01T03:38:47.111Z,80.91
2023-05-01T03:39:46.997Z,81.01
2023-05-01T03:40:46.949Z,81.01
2023-05-01T03:41:46.920Z,80.91
2023-05-01T03:42:46.939Z,81.11
2023-05-01T03:43:46.934Z,81.21
2023-05-01T03:44:46.880Z,81.21
2023-05-01T03:45:46.974Z,81.11
2023-05-01T03:46:46.966Z,81.11
2023-05-01T03:47:46.883Z,81.01
2023-05-01T03:48:47.559Z,81.01
2023-05-01T03:49:46.875Z,81.01
2023-05-01T03:50:46.855Z,81.24
2023-05-01T03:51:46.855Z,81.24
2023-05-01T03:52:46.889Z,81.24
2023-05-01T03:53:46.803Z,81.35
2023-05-01T03:54:46.807Z,81.35
2023-05-01T03:55:46.807Z,81.35
2023-05-01T03:56:46.783Z,81.45
2023-05-01T03:57:46.794Z,81.55
2023-05-01T03:58:47.746Z,81.65
2023-05-01T03:59:46.733Z,81.85
2023-05-01T04:00:46.751Z,81.85
2023-05-01T04:01:46.802Z,81.85
2023-05-01T04:02:46.865Z,81.85
2023-05-01T04:03:46.850Z,81.74
2023-05-01T04:04:46.664Z,81.74
2023-05-01T04:05:46.688Z,81.74
2023-05-01T04:06:46.810Z,81.74
2023-05-01T04:07:46.685Z,81.74
2023-05-01T04:08:46.688Z,81.74
2023-05-01T04:09:46.694Z,81.74
2023-05-01T04:10:46.702Z,81.65
2023-05-01T04:11:46.610Z,81.65
2023-05-01T04:12:46.632Z,81.65
2023-05-01T04:13:46.618Z,81.65
2023-05-01T04:14:46.648Z,81.65
2023-05-01T04:15:46.760Z,81.65
2023-05-01T04:16:46.768Z,81.74
2023-05-01T04:17:46.574Z,81.65
2023-05-01T04:18:46.569Z,81.65
2023-05-01T04:19:46.526Z,81.65
2023-05-01T04:20:46.593Z,81.65
2023-05-01T04:21:46.582Z,81.65
2023-05-01T04:22:46.617Z,81.74
2023-05-01T04:23:46.496Z,81.74
2023-05-01T04:24:46.500Z,81.65
2023-05-01T04:25:46.510Z,81.65
2023-05-01T04:26:46.529Z,81.85
2023-05-01T04:27:46.425Z,81.85
2023-05-01T04:28:46.437Z,81.85
2023-05-01T04:29:46.415Z,81.85
2023-05-01T04:30:46.419Z,81.85
2023-05-01T04:31:46.449Z,81.85
2023-05-01T04:32:46.461Z,82.05
2023-05-01T04:33:46.350Z,82.05
2023-05-01T04:34:46.354Z,81.95
2023-05-01T04:35:46.346Z,81.95
2023-05-01T04:36:46.363Z,81.95
2023-05-01T04:37:46.365Z,82.09
2023-05-01T04:38:46.381Z,82.09
2023-05-01T04:39:46.286Z,82.18
2023-05-01T04:40:46.294Z,82.29
2023-05-01T04:41:46.288Z,82.18
2023-05-01T04:42:46.297Z,82.29
2023-05-01T04:43:46.296Z,82.49
2023-05-01T04:44:46.304Z,82.39
2023-05-01T04:45:46.301Z,82.49
2023-05-01T04:46:46.374Z,82.49
2023-05-01T04:47:46.282Z,82.49
2023-05-01T04:48:46.234Z,82.49
2023-05-01T04:49:46.230Z,82.49
2023-05-01T04:50:46.268Z,82.59
2023-05-01T04:51:46.268Z,82.59
2023-05-01T04:52:46.166Z,82.59
2023-05-01T04:53:46.180Z,82.59
2023-05-01T04:54:46.170Z,82.69
2023-05-01T04:55:46.183Z,82.79
2023-05-01T04:56:46.177Z,82.69
2023-05-01T04:57:46.100Z,82.69
2023-05-01T04:58:46.103Z,82.69
2023-05-01T04:59:46.095Z,82.59
2023-05-01T05:00:46.129Z,82.69
2023-05-01T05:01:46.204Z,82.59
2023-05-01T05:02:46.229Z,82.59
2023-05-01T05:03:48.843Z,82.69
2023-05-01T05:04:46.044Z,82.69
2023-05-01T05:05:46.064Z,82.79
2023-05-01T05:06:46.195Z,82.79
2023-05-01T05:07:46.058Z,82.69
2023-05-01T05:08:46.066Z,82.69
2023-05-01T05:09:45.970Z,82.79
2023-05-01T05:10:45.996Z,82.59
2023-05-01T05:11:45.999Z,82.59
2023-05-01T05:12:45.984Z,82.69
2023-05-01T05:13:45.979Z,82.59
2023-05-01T05:14:45.993Z,82.79
2023-05-01T05:15:45.921Z,82.89
2023-05-01T05:16:45.963Z,82.79
2023-05-01T05:17:46.086Z,82.55
2023-05-01T05:18:45.906Z,82.15
2023-05-01T05:19:45.919Z,82.15
2023-05-01T05:20:45.920Z,82.15
2023-05-01T05:21:45.845Z,82.15
2023-05-01T05:22:45.857Z,82.24
2023-05-01T05:23:45.870Z,82.35
2023-05-01T05:24:45.998Z,82.45
2023-05-01T05:25:45.863Z,82.35
2023-05-01T05:26:45.788Z,82.35
2023-05-01T05:27:45.812Z,82.35
2023-05-01T05:28:45.804Z,82.35
2023-05-01T05:29:45.776Z,82.35
2023-05-01T05:30:45.804Z,82.24
2023-05-01T05:31:45.855Z,82.15
2023-05-01T05:32:45.748Z,82.15
2023-05-01T05:33:45.701Z,82.15
2023-05-01T05:34:45.731Z,82.29
2023-05-01T05:35:45.720Z,82.29
2023-05-01T05:36:45.722Z,82.29
2023-05-01T05:37:46.255Z,82.49
2023-05-01T05:38:45.665Z,82.59
2023-05-01T05:39:45.673Z,82.59
2023-05-01T05:40:45.758Z,82.39
2023-05-01T05:41:45.676Z,82.18
2023-05-01T05:42:45.770Z,81.85
2023-05-01T05:43:45.689Z,81.55
2023-05-01T05:44:45.596Z,81.65
2023-05-01T05:45:45.631Z,81.65
2023-05-01T05:46:45.609Z,81.55
2023-05-01T05:47:45.645Z,81.35
2023-05-01T05:48:45.629Z,81.24
2023-05-01T05:49:45.720Z,81.35
2023-05-01T05:50:45.512Z,81.35
2023-05-01T05:51:45.548Z,81.24
2023-05-01T05:52:45.554Z,81.09
2023-05-01T05:53:45.667Z,81.29
2023-05-01T05:54:45.569Z,81.59
2023-05-01T05:55:46.085Z,81.79
2023-05-01T05:56:45.480Z,81.68
2023-05-01T05:57:45.794Z,81.68
2023-05-01T05:58:45.584Z,81.68
2023-05-01T05:59:45.586Z,81.59
2023-05-01T06:00:47.151Z,81.48
2023-05-01T06:01:45.521Z,81.48
2023-05-01T06:02:45.466Z,81.59
2023-05-01T06:03:45.443Z,81.48
2023-05-01T06:04:45.431Z,81.29
2023-05-01T06:05:45.589Z,81.68
2023-05-01T06:06:45.520Z,81.88
2023-05-01T06:07:45.458Z,81.79
2023-05-01T06:08:45.388Z,81.79
2023-05-01T06:09:45.348Z,81.99
2023-05-01T06:10:45.371Z,82.09
2023-05-01T06:11:45.378Z,81.99
2023-05-01T06:12:48.762Z,81.79
2023-05-01T06:13:45.389Z,81.68
2023-05-01T06:14:45.381Z,81.59
2023-05-01T06:15:45.425Z,81.59
2023-05-01T06:16:45.370Z,81.59
2023-05-01T06:17:45.348Z,81.88
2023-05-01T06:18:45.924Z,81.99
2023-05-01T06:19:45.416Z,81.88
2023-05-01T06:20:45.346Z,81.88
2023-05-01T06:21:45.237Z,81.88
2023-05-01T06:22:45.338Z,81.88
2023-05-01T06:23:45.348Z,81.79
2023-05-01T06:24:45.563Z,81.79
2023-05-01T06:25:45.157Z,81.79
2023-05-01T06:26:45.162Z,81.88
2023-05-01T06:27:45.184Z,81.88
2023-05-01T06:28:45.170Z,81.79
2023-05-01T06:29:45.165Z,81.79
2023-05-01T06:30:45.594Z,81.79
2023-05-01T06:31:45.104Z,81.59
2023-05-01T06:32:45.134Z,81.48
2023-05-01T06:33:45.111Z,81.48
2023-05-01T06:34:45.111Z,81.48
2023-05-01T06:35:45.091Z,81.48
2023-05-01T06:36:45.122Z,81.38
2023-05-01T06:37:45.005Z,81.38
2023-05-01T06:38:45.008Z,81.48
2023-05-01T06:39:45.022Z,81.38
2023-05-01T06:40:45.094Z,81.35
2023-05-01T06:41:45.029Z,81.35
2023-05-01T06:42:45.099Z,81.24
2023-05-01T06:43:44.956Z,81.04
2023-05-01T06:44:44.947Z,81.04
2023-05-01T06:45:44.953Z,81.04
2023-05-01T06:46:45.026Z,80.65
2023-05-01T06:47:45.024Z,79.94
2023-05-01T06:48:45.009Z,79.94
2023-05-01T06:49:45.558Z,80.04
2023-05-01T06:50:44.924Z,80.15
2023-05-01T06:51:44.889Z,80.35
2023-05-01T06:52:44.855Z,80.54
2023-05-01T06:53:45.725Z,80.35
2023-05-01T06:54:45.138Z,80.54
2023-05-01T06:55:44.849Z,80.54
2023-05-01T06:56:44.830Z,80.65
2023-05-01T06:57:44.830Z,80.65
2023-05-01T06:58:44.843Z,80.74
2023-05-01T06:59:44.772Z,80.74
2023-05-01T07:00:44.869Z,80.74
2023-05-01T07:01:45.126Z,80.74
2023-05-01T07:02:45.072Z,80.85
2023-05-01T07:03:44.826Z,80.88
2023-05-01T07:04:44.748Z,80.98
2023-05-01T07:05:44.748Z,81.18
2023-05-01T07:06:44.764Z,81.15
2023-05-01T07:07:54.128Z,81.15
2023-05-01T07:08:44.716Z,81.24
2023-05-01T07:09:44.714Z,81.24
2023-05-01T07:10:44.734Z,81.24
2023-05-01T07:11:44.683Z,81.18
2023-05-01T07:12:44.685Z,81.24
2023-05-01T07:13:44.706Z,81.48
2023-05-01T07:14:44.641Z,81.35
2023-05-01T07:15:44.711Z,81.04
2023-05-01T07:16:44.652Z,81.04
2023-05-01T07:17:44.683Z,80.94
2023-05-01T07:18:44.618Z,81.24
2023-05-01T07:19:44.583Z,81.24
2023-05-01T07:20:44.580Z,81.15
2023-05-01T07:21:44.588Z,81.48
2023-05-01T07:22:44.560Z,81.68
2023-05-01T07:23:44.599Z,81.68
2023-05-01T07:24:44.661Z,81.79
2023-05-01T07:25:44.586Z,81.79
2023-05-01T07:26:44.492Z,81.88
2023-05-01T07:27:44.585Z,81.88
2023-05-01T07:28:44.490Z,81.48
2023-05-01T07:29:44.519Z,81.79
2023-05-01T07:30:44.537Z,81.88
2023-05-01T07:31:44.518Z,81.59
2023-05-01T07:32:44.504Z,81.29
2023-05-01T07:33:44.433Z,81.29
2023-05-01T07:34:44.474Z,81.48
2023-05-01T07:35:44.581Z,81.48
2023-05-01T07:36:44.489Z,81.38
2023-05-01T07:37:44.383Z,81.38
2023-05-01T07:38:44.463Z,81.48
2023-05-01T07:39:44.493Z,81.48
2023-05-01T07:40:44.433Z,81.59
2023-05-01T07:41:44.610Z,81.59
2023-05-01T07:42:44.420Z,81.68
2023-05-01T07:43:44.320Z,81.68
2023-05-01T07:44:44.335Z,81.79
2023-05-01T07:45:44.348Z,81.79
2023-05-01T07:46:44.348Z,81.79
2023-05-01T07:47:44.348Z,81.88
2023-05-01T07:48:44.248Z,81.99
2023-05-01T07:49:44.261Z,82.18
2023-05-01T07:50:44.264Z,82.18
2023-05-01T07:51:44.278Z,82.29
2023-05-01T07:52:44.283Z,82.18
2023-05-01T07:53:44.266Z,82.09
2023-05-01T07:54:44.294Z,82.09
2023-05-01T07:55:44.195Z,82.29
2023-05-01T07:56:44.195Z,82.29
2023-05-01T07:57:44.210Z,82.09
2023-05-01T07:58:45.060Z,82.18
2023-05-01T07:59:44.233Z,82.29
2023-05-01T08:00:44.205Z,82.29
2023-05-01T08:01:44.136Z,82.63
2023-05-01T08:02:44.293Z,82.63
2023-05-01T08:03:44.277Z,82.43
2023-05-01T08:04:44.194Z,82.32
2023-05-01T08:05:44.125Z,82.53
2023-05-01T08:06:44.315Z,82.53
2023-05-01T08:07:44.076Z,82.63
2023-05-01T08:08:44.041Z,82.53
2023-05-01T08:09:44.084Z,82.53
2023-05-01T08:10:44.060Z,82.63
2023-05-01T08:11:44.099Z,82.93
2023-05-01T08:12:44.004Z,82.73
2023-05-01T08:13:44.080Z,82.53
2023-05-01T08:14:44.115Z,82.12
2023-05-01T08:15:44.049Z,82.32
2023-05-01T08:16:44.121Z,82.53
2023-05-01T08:17:44.177Z,82.63
2023-05-01T08:18:44.072Z,82.53
2023-05-01T08:19:44.004Z,82.23
2023-05-01T08:20:44.132Z,82.09
2023-05-01T08:21:43.928Z,82.03
2023-05-01T08:22:44.036Z,82.23
2023-05-01T08:23:43.944Z,82.23
2023-05-01T08:24:43.980Z,82.23
2023-05-01T08:25:43.918Z,82.32
2023-05-01T08:26:43.959Z,82.43
2023-05-01T08:27:43.971Z,82.23
2023-05-01T08:28:43.979Z,82.03
2023-05-01T08:29:43.873Z,81.93
2023-05-01T08:30:43.888Z,82.32
2023-05-01T08:31:43.980Z,82.43
2023-05-01T08:32:43.828Z,82.63
2023-05-01T08:33:43.913Z,82.32
2023-05-01T08:34:43.815Z,82.32
2023-05-01T08:35:43.819Z,82.46
2023-05-01T08:36:43.988Z,82.67
2023-05-01T08:37:43.728Z,82.97
2023-05-01T08:38:43.787Z,82.97
2023-05-01T08:39:44.621Z,82.67
2023-05-01T08:40:43.751Z,82.76
2023-05-01T08:41:43.759Z,82.97
2023-05-01T08:42:44.749Z,83.07
2023-05-01T08:43:43.680Z,82.97
2023-05-01T08:44:44.597Z,82.17
2023-05-01T08:45:43.682Z,82.17
2023-05-01T08:46:43.738Z,82.26
2023-05-01T08:47:43.763Z,82.37
2023-05-01T08:48:43.796Z,82.37
2023-05-01T08:49:43.622Z,82.17
2023-05-01T08:50:43.708Z,81.87
2023-05-01T08:51:43.617Z,82.06
2023-05-01T08:52:43.640Z,81.96
2023-05-01T08:53:43.578Z,81.96
2023-05-01T08:54:44.146Z,81.96
2023-05-01T08:55:43.645Z,82.06
2023-05-01T08:56:43.555Z,82.06
2023-05-01T08:57:43.636Z,81.96
2023-05-01T08:58:43.507Z,82.06
2023-05-01T08:59:43.519Z,81.96
2023-05-01T09:00:43.555Z,81.67
2023-05-01T09:01:43.696Z,81.56
2023-05-01T09:02:43.678Z,80.96
2023-05-01T09:03:43.577Z,81.26
2023-05-01T09:04:43.439Z,81.67
2023-05-01T09:05:43.450Z,81.67
2023-05-01T09:06:43.416Z,81.67
2023-05-01T09:07:43.521Z,81.67
2023-05-01T09:08:43.497Z,81.76
2023-05-01T09:09:43.509Z,81.67
2023-05-01T09:10:43.435Z,81.56
2023-05-01T09:11:43.412Z,81.67
2023-05-01T09:12:43.422Z,81.87
2023-05-01T09:13:43.320Z,81.76
2023-05-01T09:14:43.399Z,81.87
2023-05-01T09:15:43.380Z,81.96
2023-05-01T09:16:43.601Z,82.17
2023-05-01T09:17:43.320Z,82.17
2023-05-01T09:18:43.304Z,82.17
2023-05-01T09:19:43.323Z,82.06
2023-05-01T09:20:43.334Z,82.06
2023-05-01T09:21:43.233Z,82.17
2023-05-01T09:22:43.317Z,82.17
2023-05-01T09:23:43.254Z,82.17
2023-05-01T09:24:43.299Z,82.26
2023-05-01T09:25:43.302Z,82.26
2023-05-01T09:26:43.277Z,82.26
2023-05-01T09:27:43.247Z,82.46
2023-05-01T09:28:43.194Z,82.57
2023-05-01T09:29:43.194Z,82.67
2023-05-01T09:30:43.200Z,82.87
2023-05-01T09:31:43.213Z,82.67
2023-05-01T09:32:43.231Z,82.87
2023-05-01T09:33:43.219Z,82.97
2023-05-01T09:34:43.122Z,83.07
2023-05-01T09:35:43.129Z,83.07
2023-05-01T09:36:43.141Z,83.07
2023-05-01T09:37:43.152Z,83.37
2023-05-01T09:38:43.081Z,83.51
2023-05-01T09:39:43.083Z,83.67
2023-05-01T09:40:43.065Z,83.77
2023-05-01T09:41:43.071Z,83.67
2023-05-01T09:42:43.073Z,83.67
2023-05-01T09:43:43.016Z,83.57
2023-05-01T09:44:43.120Z,83.27
2023-05-01T09:45:43.000Z,83.47
2023-05-01T09:46:43.001Z,83.47
2023-05-01T09:47:43.055Z,83.37
2023-05-01T09:48:43.048Z,83.47
2023-05-01T09:49:43.060Z,83.71
2023-05-01T09:50:42.959Z,83.81
2023-05-01T09:51:42.937Z,83.61
2023-05-01T09:52:42.967Z,83.71
2023-05-01T09:53:42.947Z,83.81
2023-05-01T09:54:42.880Z,83.67
2023-05-01T09:55:43.088Z,83.61
2023-05-01T09:56:42.901Z,83.81
2023-05-01T09:57:42.892Z,83.81
2023-05-01T09:58:42.905Z,83.81
2023-05-01T09:59:42.905Z,84.11
2023-05-01T10:00:42.815Z,84.01
2023-05-01T10:01:42.938Z,84.21
2023-05-01T10:02:42.952Z,83.61
2023-05-01T10:03:43.046Z,83.61
2023-05-01T10:04:43.282Z,83.71
2023-05-01T10:05:43.368Z,83.91
2023-05-01T10:06:42.929Z,83.71
2023-05-01T10:07:43.412Z,84.05
2023-05-01T10:08:42.796Z,84.55
2023-05-01T10:09:42.794Z,84.75
2023-05-01T10:10:43.022Z,84.85
2023-05-01T10:11:42.823Z,84.85
2023-05-01T10:12:42.819Z,84.75
2023-05-01T10:13:42.735Z,84.55
2023-05-01T10:14:42.739Z,84.55
2023-05-01T10:15:42.722Z,84.55
2023-05-01T10:16:42.878Z,84.55
2023-05-01T10:17:42.755Z,84.45
2023-05-01T10:18:42.740Z,84.35
2023-05-01T10:19:42.751Z,84.25
2023-05-01T10:20:42.903Z,84.25
2023-05-01T10:21:42.708Z,84.15
2023-05-01T10:22:42.693Z,84.15
2023-05-01T10:23:42.634Z,84.05
2023-05-01T10:24:42.677Z,84.35
2023-05-01T10:25:42.609Z,84.35
2023-05-01T10:26:43.233Z,84.45
2023-05-01T10:27:42.613Z,84.35
2023-05-01T10:28:42.624Z,84.25
2023-05-01T10:29:42.529Z,84.35
2023-05-01T10:30:42.580Z,84.45
2023-05-01T10:31:42.921Z,84.80
2023-05-01T10:32:42.775Z,84.75
2023-05-01T10:33:42.633Z,84.65
2023-05-01T10:34:42.535Z,84.55
2023-05-01T10:35:42.651Z,84.65
2023-05-01T10:36:42.557Z,84.65
2023-05-01T10:37:42.554Z,84.65
2023-05-01T10:38:42.816Z,84.55
2023-05-01T10:39:42.476Z,84.51
2023-05-01T10:40:42.488Z,84.51
2023-05-01T10:41:42.419Z,84.11
2023-05-01T10:42:42.392Z,84.01
2023-05-01T10:43:42.432Z,83.61
2023-05-01T10:44:42.655Z,83.41
2023-05-01T10:45:42.405Z,83.37
2023-05-01T10:46:42.414Z,83.47
2023-05-01T10:47:42.393Z,83.07
2023-05-01T10:48:42.326Z,82.97
2023-05-01T10:49:42.334Z,82.87
2023-05-01T10:50:42.365Z,82.76
2023-05-01T10:51:42.380Z,82.97
2023-05-01T10:52:42.345Z,82.81
2023-05-01T10:53:42.294Z,83.01
2023-05-01T10:54:42.297Z,83.11
2023-05-01T10:55:42.292Z,83.21
2023-05-01T10:56:42.412Z,83.07
2023-05-01T10:57:42.307Z,83.07
2023-05-01T10:58:42.529Z,82.76
2023-05-01T10:59:42.226Z,82.76
2023-05-01T11:00:42.369Z,82.82
2023-05-01T11:01:42.394Z,82.32
2023-05-01T11:02:42.376Z,82.12
2023-05-01T11:03:42.240Z,81.82
2023-05-01T11:04:42.158Z,81.62
2023-05-01T11:05:42.188Z,81.32
2023-05-01T11:06:42.361Z,81.88
2023-05-01T11:07:42.186Z,81.79
2023-05-01T11:08:42.176Z,81.18
2023-05-01T11:09:42.160Z,80.98
2023-05-01T11:10:43.017Z,81.09
2023-05-01T11:11:42.109Z,80.98
2023-05-01T11:12:42.214Z,80.88
2023-05-01T11:13:42.113Z,80.35
2023-05-01T11:14:42.125Z,80.24
2023-05-01T11:15:42.036Z,80.65
2023-05-01T11:16:42.323Z,80.44
2023-05-01T11:17:42.680Z,80.44
2023-05-01T11:18:42.047Z,79.44
2023-05-01T11:19:42.069Z,79.44
2023-05-01T11:20:42.042Z,79.85
2023-05-01T11:21:42.060Z,80.24
2023-05-01T11:22:41.981Z,79.85
2023-05-01T11:23:42.906Z,79.85
2023-05-01T11:24:41.988Z,80.44
2023-05-01T11:25:42.178Z,80.30
2023-05-01T11:26:41.882Z,80.00
2023-05-01T11:27:41.910Z,79.30
2023-05-01T11:28:41.904Z,79.21
2023-05-01T11:29:41.893Z,78.67
2023-05-01T11:30:42.621Z,78.97
2023-05-01T11:31:42.549Z,79.57
2023-05-01T11:32:41.882Z,78.47
2023-05-01T11:33:41.812Z,78.56
2023-05-01T11:34:41.859Z,78.73
2023-05-01T11:35:41.856Z,78.93
2023-05-01T11:36:41.836Z,78.43
2023-05-01T11:37:42.152Z,77.83
2023-05-01T11:38:41.783Z,77.83
2023-05-01T11:39:41.752Z,77.49
2023-05-01T11:40:41.787Z,76.59
2023-05-01T11:41:41.798Z,76.89
2023-05-01T11:42:41.777Z,76.79
2023-05-01T11:43:41.776Z,76.59
2023-05-01T11:44:41.681Z,76.29
2023-05-01T11:45:41.704Z,76.39
2023-05-01T11:46:41.691Z,75.79
2023-05-01T11:47:41.728Z,75.35
2023-05-01T11:48:41.737Z,75.16
2023-05-01T11:49:41.712Z,75.35
2023-05-01T11:50:41.672Z,75.85
2023-05-01T11:51:41.663Z,75.56
2023-05-01T11:52:41.664Z,74.76
2023-05-01T11:53:41.671Z,74.42
2023-05-01T11:54:41.758Z,74.32
2023-05-01T11:55:41.659Z,74.52
2023-05-01T11:56:41.597Z,74.42
2023-05-01T11:57:41.676Z,74.42
2023-05-01T11:58:41.602Z,74.42
2023-05-01T11:59:41.574Z,73.12
2023-05-01T12:00:41.631Z,73.42
2023-05-01T12:01:41.591Z,73.62
2023-05-01T12:02:41.686Z,74.22
2023-05-01T12:03:41.597Z,74.02
2023-05-01T12:04:41.565Z,74.22
2023-05-01T12:05:41.515Z,73.58
2023-05-01T12:06:41.627Z,73.28
2023-05-01T12:07:41.557Z,72.99
2023-05-01T12:08:41.482Z,73.09
2023-05-01T12:09:41.446Z,72.45
2023-05-01T12:10:41.482Z,72.55
2023-05-01T12:11:41.477Z,71.86
2023-05-01T12:12:41.467Z,71.75
2023-05-01T12:13:41.501Z,70.95
2023-05-01T12:14:41.409Z,70.46
2023-05-01T12:15:41.520Z,70.95
2023-05-01T12:16:42.043Z,71.36
2023-05-01T12:17:41.442Z,72.75
2023-05-01T12:18:41.606Z,72.65
2023-05-01T12:19:41.340Z,71.75
2023-05-01T12:20:41.335Z,71.02
2023-05-01T12:21:41.331Z,70.62
2023-05-01T12:22:41.351Z,70.72
2023-05-01T12:23:41.364Z,71.12
2023-05-01T12:24:41.262Z,70.83
2023-05-01T12:25:41.270Z,70.53
2023-05-01T12:26:41.259Z,71.22
2023-05-01T12:27:41.248Z,71.12
2023-05-01T12:28:41.292Z,70.83
2023-05-01T12:29:41.300Z,70.62
2023-05-01T12:30:41.213Z,70.79
2023-05-01T12:31:41.277Z,70.19
2023-05-01T12:32:41.244Z,70.39
2023-05-01T12:33:41.222Z,69.59
2023-05-01T12:34:41.222Z,69.59
2023-05-01T12:35:41.236Z,70.69
2023-05-01T12:36:41.144Z,69.49
2023-05-01T12:37:41.141Z,69.79
2023-05-01T12:38:41.143Z,69.49
2023-05-01T12:39:41.151Z,68.79
2023-05-01T12:40:41.161Z,68.66
2023-05-01T12:41:41.177Z,67.96
2023-05-01T12:42:41.078Z,68.07
2023-05-01T12:43:42.462Z,68.66
2023-05-01T12:44:41.098Z,68.86
2023-05-01T12:45:41.505Z,67.57
2023-05-01T12:46:41.170Z,68.16
2023-05-01T12:47:41.171Z,68.46
2023-05-01T12:48:40.993Z,67.47
2023-05-01T12:49:41.023Z,68.56
2023-05-01T12:50:41.026Z,68.26
2023-05-01T12:51:41.034Z,68.83
2023-05-01T12:52:41.038Z,68.73